Time;durP1;ratioP1;P1;durP2;ratioP2;P2;SDS_P1;SDS_P2;PMS_P1;PMS_P2;Temp;Humidity;BMP_temperature;BMP_pressure;BME280_temperature;BME280_humidity;BME280_pressure;Samples;Min_cycle;Max_cycle;Signal;HPM_P1;HPM_P2
2023/10/06 00:02:20;;;;;;;;;;;12.80;99.90;;;13.06;nan;101735.03;4928597;29;19926;-66
2023/10/06 00:04:51;;;;;;;;;;;12.80;99.90;;;13.01;nan;101731.84;4911775;29;20009;-67
2023/10/06 00:07:20;;;;;;;;;;;12.70;99.90;;;12.93;nan;101723.63;4907571;29;19923;-66
2023/10/06 00:09:47;;;;;;;;;;;12.70;99.90;;;12.82;nan;101721.69;4912467;29;19966;-66
2023/10/06 00:12:16;;;;;;;;;;;12.60;99.90;;;12.80;nan;101728.00;4909162;29;19938;-67
2023/10/06 00:14:43;;;;;;;;;;;12.50;99.90;;;12.77;nan;101722.94;4912814;29;19923;-66
2023/10/06 00:17:21;;;;;;;;;;;12.50;99.90;;;12.70;nan;101726.88;4910977;29;20436;-66
2023/10/06 00:19:54;;;;;;;;;;;12.50;99.90;;;12.63;nan;101725.59;4913397;29;19923;-66
2023/10/06 00:22:21;;;;;;;;;;;12.40;99.90;;;12.60;nan;101723.16;4914165;29;19927;-66
2023/10/06 00:24:50;;;;;;;;;;;12.40;99.90;;;12.56;nan;101714.66;4914286;29;20309;-67
2023/10/06 00:27:38;;;;;;;;;;;12.30;99.90;;;12.55;nan;101715.59;4913527;29;20529;-66
2023/10/06 00:30:11;;;;;;;;;;;12.30;99.90;;;12.52;nan;101718.41;4912209;29;19927;-65
2023/10/06 00:32:39;;;;;;;;;;;12.30;99.90;;;12.50;nan;101719.44;4913503;29;20350;-66
2023/10/06 00:35:14;;;;;;;;;;;12.30;99.90;;;12.45;nan;101717.97;4912941;29;20394;-67
2023/10/06 00:37:43;;;;;;;;;;;12.20;99.90;;;12.48;nan;101721.31;4914851;29;19946;-66
2023/10/06 00:40:19;;;;;;;;;;;12.20;99.90;;;12.57;nan;101723.34;4911852;29;20338;-66
2023/10/06 00:42:51;;;;;;;;;;;12.30;99.90;;;12.62;nan;101718.66;4914726;29;19954;-65
2023/10/06 00:45:18;;;;;;;;;;;12.30;99.90;;;12.67;nan;101719.22;4906698;29;20309;-67
2023/10/06 00:47:45;;;;;;;;;;;12.40;99.90;;;12.70;nan;101719.88;4911782;29;20398;-66
2023/10/06 00:50:12;;;;;;;;;;;12.40;99.90;;;12.73;nan;101726.69;4914625;29;19931;-67
2023/10/06 00:52:40;;;;;;;;;;;12.50;99.90;;;12.73;nan;101717.06;4904689;29;19923;-66
2023/10/06 00:55:11;;;;;;;;;;;12.50;99.90;;;12.71;nan;101712.84;4909569;29;20401;-67
2023/10/06 00:57:38;;;;;;;;;;;12.50;99.90;;;12.72;nan;101722.38;4912280;29;20345;-67
2023/10/06 01:00:16;;;;;;;;;;;12.40;99.90;;;12.74;nan;101726.59;4924467;29;20385;-66
2023/10/06 01:02:43;;;;;;;;;;;12.50;99.90;;;12.78;nan;101720.22;4917466;29;19930;-66
2023/10/06 01:05:10;;;;;;;;;;;12.50;99.90;;;12.81;nan;101719.19;4916247;29;19954;-65
2023/10/06 01:07:38;;;;;;;;;;;12.60;99.90;;;12.84;nan;101719.00;4913170;29;19927;-64
2023/10/06 01:10:16;;;;;;;;;;;12.60;99.90;;;12.85;nan;101715.41;4916755;29;20546;-66
2023/10/06 01:12:50;;;;;;;;;;;12.60;99.90;;;12.86;nan;101712.69;4915604;29;19978;-66
2023/10/06 01:15:19;;;;;;;;;;;12.60;99.90;;;12.87;nan;101713.53;4913025;29;19926;-66
2023/10/06 01:17:47;;;;;;;;;;;12.60;99.90;;;12.88;nan;101716.09;4916466;29;20394;-66
2023/10/06 01:20:33;;;;;;;;;;;12.60;99.90;;;12.90;nan;101715.97;4908936;29;19978;-66
2023/10/06 01:23:00;;;;;;;;;;;12.60;99.90;;;12.89;nan;101719.53;4912132;29;19930;-67
2023/10/06 01:25:34;;;;;;;;;;;12.60;99.90;;;12.87;nan;101721.41;4914524;29;19922;-67
2023/10/06 01:28:06;;;;;;;;;;;12.60;99.90;;;12.85;nan;101725.91;4916425;29;19934;-67
2023/10/06 01:30:32;;;;;;;;;;;12.60;99.90;;;12.78;nan;101717.59;4916747;29;20325;-67
2023/10/06 01:32:59;;;;;;;;;;;12.50;99.90;;;12.72;nan;101719.75;4913171;29;19922;-67
2023/10/06 01:35:26;;;;;;;;;;;12.50;99.90;;;12.65;nan;101723.72;4906155;29;19927;-67
2023/10/06 01:37:59;;;;;;;;;;;12.40;99.90;;;12.61;nan;101723.06;4912986;29;19978;-66
2023/10/06 01:42:56;;;;;;;;;;;12.30;99.90;;;12.58;nan;101728.50;4914467;29;19927;-66
2023/10/06 01:45:23;;;;;;;;;;;12.30;99.90;;;12.59;nan;101724.94;4915539;29;19923;-67
2023/10/06 01:48:22;;;;;;;;;;;12.30;99.90;;;12.60;nan;101726.63;4916533;29;19923;-66
2023/10/06 01:50:44;;;;;;;;;;;12.30;99.90;;;12.62;nan;101718.66;4908613;29;19943;-66
2023/10/06 01:53:16;;;;;;;;;;;12.30;99.90;;;12.62;nan;101718.66;4912178;29;19923;-67
2023/10/06 01:55:43;;;;;;;;;;;12.30;99.90;;;12.57;nan;101720.72;4906640;29;19930;-65
2023/10/06 01:58:11;;;;;;;;;;;12.30;99.90;;;12.52;nan;101720.19;4928325;29;19931;-65
2023/10/06 02:00:38;;;;;;;;;;;12.30;99.90;;;12.50;nan;101714.22;4908013;29;19927;-66
2023/10/06 02:03:10;;;;;;;;;;;12.20;99.90;;;12.48;nan;101707.28;4912949;29;19923;-66
2023/10/06 02:05:40;;;;;;;;;;;12.20;99.90;;;12.48;nan;101716.09;4916643;29;20313;-67
2023/10/06 02:08:14;;;;;;;;;;;12.20;99.90;;;12.41;nan;101705.97;4915145;29;19942;-65
2023/10/06 02:10:43;;;;;;;;;;;12.20;99.90;;;12.35;nan;101708.16;4914904;29;19931;-66
2023/10/06 02:13:10;;;;;;;;;;;12.10;99.90;;;12.34;nan;101703.84;4910762;29;19950;-65
2023/10/06 02:15:37;;;;;;;;;;;12.10;99.90;;;12.30;nan;101703.22;4908729;29;19927;-65
2023/10/06 02:18:07;;;;;;;;;;;12.10;99.90;;;12.32;nan;101698.72;4905604;29;20330;-65
2023/10/06 02:20:34;;;;;;;;;;;12.10;99.90;;;12.33;nan;101699.53;4915399;29;19923;-66
2023/10/06 02:23:03;;;;;;;;;;;12.10;99.90;;;12.28;nan;101691.16;4909798;29;19946;-67
2023/10/06 02:25:31;;;;;;;;;;;12.00;99.90;;;12.28;nan;101693.78;4909285;29;19923;-66
2023/10/06 02:28:04;;;;;;;;;;;12.00;99.90;;;12.30;nan;101697.97;4915461;29;19923;-66
2023/10/06 02:30:33;;;;;;;;;;;12.00;99.90;;;12.33;nan;101699.53;4914515;29;19923;-66
2023/10/06 02:33:00;;;;;;;;;;;12.10;99.90;;;12.35;nan;101687.22;4910767;29;19984;-67
2023/10/06 02:35:27;;;;;;;;;;;12.10;99.90;;;12.40;nan;101683.38;4916379;29;19974;-67
2023/10/06 02:37:57;;;;;;;;;;;12.10;99.90;;;12.43;nan;101683.19;4914928;29;19923;-67
2023/10/06 02:40:38;;;;;;;;;;;12.10;99.90;;;12.44;nan;101687.47;4914886;29;19923;-67
2023/10/06 02:43:09;;;;;;;;;;;12.20;99.90;;;12.41;nan;101679.81;4915088;29;19922;-66
2023/10/06 02:45:40;;;;;;;;;;;12.20;99.90;;;12.36;nan;101681.88;4916758;29;19985;-66
2023/10/06 02:48:21;;;;;;;;;;;12.10;99.90;;;12.33;nan;101683.84;4911573;29;19977;-67
2023/10/06 02:50:50;;;;;;;;;;;12.10;99.90;;;12.30;nan;101689.28;4914095;29;20466;-66
2023/10/06 02:53:23;;;;;;;;;;;12.10;99.90;;;12.31;nan;101689.19;4912588;29;19930;-67
2023/10/06 02:55:56;;;;;;;;;;;12.10;99.90;;;12.30;nan;101681.44;4914971;29;19930;-67
2023/10/06 02:58:26;;;;;;;;;;;12.10;99.90;;;12.25;nan;101681.72;4914806;29;19927;-67
2023/10/06 03:00:55;;;;;;;;;;;12.00;99.90;;;12.17;nan;101680.50;4924950;29;19927;-66
2023/10/06 03:03:26;;;;;;;;;;;12.00;99.90;;;12.10;nan;101685.28;4914342;29;19934;-66
2023/10/06 03:05:56;;;;;;;;;;;11.90;99.90;;;12.05;nan;101692.56;4912024;29;19926;-68
2023/10/06 03:08:30;;;;;;;;;;;11.80;99.90;;;12.00;nan;101683.31;4915910;29;19923;-66
2023/10/06 03:10:56;;;;;;;;;;;11.80;99.90;;;11.96;nan;101680.06;4911983;29;19923;-64
2023/10/06 03:13:31;;;;;;;;;;;11.80;99.90;;;11.94;nan;101689.78;4904441;29;19927;-66
2023/10/06 03:15:59;;;;;;;;;;;11.70;99.90;;;11.94;nan;101694.16;4906346;29;19927;-67
2023/10/06 03:18:28;;;;;;;;;;;11.70;99.90;;;11.95;nan;101694.06;4916558;29;19923;-66
2023/10/06 03:21:04;;;;;;;;;;;11.70;99.90;;;11.96;nan;101693.13;4904377;29;20287;-66
2023/10/06 03:23:38;;;;;;;;;;;11.70;99.90;;;11.90;nan;101685.66;4914512;29;19945;-67
2023/10/06 03:26:44;;;;;;;;;;;11.70;99.90;;;11.89;nan;101683.97;4922710;29;19931;-66
2023/10/06 03:29:02;;;;;;;;;;;11.70;99.90;;;11.93;nan;101676.78;4913887;29;19946;-66
2023/10/06 03:31:46;;;;;;;;;;;11.70;99.90;;;11.91;nan;101687.34;4912439;29;20385;-65
2023/10/06 03:34:15;;;;;;;;;;;11.70;99.90;;;11.87;nan;101682.38;4913809;29;19923;-65
2023/10/06 03:36:47;;;;;;;;;;;11.70;99.90;;;11.83;nan;101681.75;4912965;29;19923;-66
2023/10/06 03:39:21;;;;;;;;;;;11.60;99.90;;;11.84;nan;101680.78;4909928;29;19931;-65
2023/10/06 03:41:52;;;;;;;;;;;11.60;99.90;;;11.83;nan;101681.75;4914127;29;19930;-66
2023/10/06 03:44:26;;;;;;;;;;;11.60;99.90;;;11.77;nan;101676.88;4911449;29;20393;-66
2023/10/06 03:46:53;;;;;;;;;;;11.60;99.90;;;11.71;nan;101676.41;4919969;29;19928;-65
2023/10/06 03:49:20;;;;;;;;;;;11.50;99.90;;;11.64;nan;101674.13;4906407;29;19931;-67
2023/10/06 03:51:47;;;;;;;;;;;11.40;99.90;;;11.64;nan;101673.28;4912343;29;19923;-65
2023/10/06 03:54:15;;;;;;;;;;;11.40;99.90;;;11.63;nan;101685.50;4910032;29;19962;-67
2023/10/06 03:56:45;;;;;;;;;;;11.50;99.90;;;11.63;nan;101676.81;4905301;29;19923;-67
2023/10/06 03:59:12;;;;;;;;;;;11.40;99.90;;;11.62;nan;101672.53;4913529;29;19923;-66
2023/10/06 04:01:42;;;;;;;;;;;11.40;99.90;;;11.68;nan;101672.19;4926825;29;19931;-66
2023/10/06 04:04:09;;;;;;;;;;;11.50;99.90;;;11.72;nan;101681.53;4913706;29;19927;-67
2023/10/06 04:06:37;;;;;;;;;;;11.50;99.90;;;11.76;nan;101680.41;4911806;29;19981;-65
2023/10/06 04:09:05;;;;;;;;;;;11.50;99.90;;;11.82;nan;101679.22;4908968;29;20472;-67
2023/10/06 04:11:34;;;;;;;;;;;11.60;99.90;;;11.85;nan;101679.88;4905582;29;19922;-64
2023/10/06 04:14:01;;;;;;;;;;;11.60;99.90;;;11.85;nan;101673.78;4907470;29;19934;-66
2023/10/06 04:16:28;;;;;;;;;;;11.60;99.90;;;11.81;nan;101670.53;4904266;29;19933;-66
2023/10/06 04:18:55;;;;;;;;;;;11.60;99.90;;;11.83;nan;101670.44;4912734;29;20342;-67
2023/10/06 04:21:24;;;;;;;;;;;11.60;99.90;;;11.82;nan;101681.84;4922736;29;19927;-66
2023/10/06 04:23:51;;;;;;;;;;;11.60;99.90;;;11.83;nan;101679.13;4909926;29;20444;-66
2023/10/06 04:26:18;;;;;;;;;;;11.60;99.90;;;11.85;nan;101679.03;4911451;29;19945;-66
2023/10/06 04:28:46;;;;;;;;;;;11.60;99.90;;;11.87;nan;101675.38;4911506;29;20456;-67
2023/10/06 04:31:15;;;;;;;;;;;11.60;99.90;;;11.89;nan;101670.91;4913412;29;19966;-67
2023/10/06 04:33:42;;;;;;;;;;;11.70;99.90;;;11.90;nan;101667.38;4910908;29;19931;-66
2023/10/06 04:36:10;;;;;;;;;;;11.70;99.90;;;11.92;nan;101665.50;4906309;29;19938;-66
2023/10/06 04:38:40;;;;;;;;;;;11.70;99.90;;;11.89;nan;101660.44;4908640;29;20021;-66
2023/10/06 04:41:08;;;;;;;;;;;11.70;99.90;;;11.88;nan;101669.22;4906166;29;19923;-66
2023/10/06 04:43:37;;;;;;;;;;;11.60;99.90;;;11.89;nan;101672.66;4906619;29;19930;-66
2023/10/06 04:46:06;;;;;;;;;;;11.60;99.90;;;11.88;nan;101679.69;4921592;29;19930;-66
2023/10/06 04:48:35;;;;;;;;;;;11.60;99.90;;;11.91;nan;101676.88;4908807;29;19982;-67
2023/10/06 04:51:09;;;;;;;;;;;11.60;99.90;;;11.90;nan;101672.59;4911780;29;19923;-66
2023/10/06 04:53:36;;;;;;;;;;;11.70;99.90;;;11.88;nan;101679.69;4902981;29;19927;-66
2023/10/06 04:56:04;;;;;;;;;;;11.60;99.90;;;11.86;nan;101675.47;4910372;29;19923;-66
2023/10/06 04:58:31;;;;;;;;;;;11.60;99.90;;;11.85;nan;101679.88;4909828;29;19985;-66
2023/10/06 05:01:02;;;;;;;;;;;11.60;99.90;;;11.83;nan;101680.88;4912121;29;19922;-66
2023/10/06 05:03:42;;;;;;;;;;;11.60;99.90;;;11.82;nan;101687.06;4913148;29;19923;-67
2023/10/06 05:06:13;;;;;;;;;;;11.60;99.90;;;11.79;nan;101682.84;4911462;29;20329;-67
2023/10/06 05:08:41;;;;;;;;;;;11.60;99.90;;;11.80;nan;101681.09;4912276;29;20309;-67
2023/10/06 05:11:10;;;;;;;;;;;11.50;99.90;;;11.82;nan;101674.00;4911096;29;19923;-67
2023/10/06 05:13:39;;;;;;;;;;;11.60;99.90;;;11.83;nan;101676.50;4908944;29;19927;-67
2023/10/06 05:16:06;;;;;;;;;;;11.60;99.90;;;11.84;nan;101683.41;4911261;29;19938;-66
2023/10/06 05:18:35;;;;;;;;;;;11.60;99.90;;;11.84;nan;101685.19;4912703;29;19923;-66
2023/10/06 05:21:01;;;;;;;;;;;11.60;99.90;;;11.84;nan;101686.00;4911714;29;19931;-66
2023/10/06 05:23:28;;;;;;;;;;;11.60;99.90;;;11.87;nan;101680.63;4911797;29;20389;-66
2023/10/06 05:26:02;;;;;;;;;;;11.60;99.90;;;11.85;nan;101685.09;4927484;29;19930;-66
2023/10/06 05:28:31;;;;;;;;;;;11.60;99.90;;;11.80;nan;101681.91;4909009;29;19993;-66
2023/10/06 05:30:58;;;;;;;;;;;11.60;99.90;;;11.78;nan;101681.16;4903974;29;19928;-66
2023/10/06 05:33:25;;;;;;;;;;;11.50;99.90;;;11.78;nan;101688.16;4911839;29;19923;-66
2023/10/06 05:35:52;;;;;;;;;;;11.50;99.90;;;11.74;nan;101694.50;4910882;29;20397;-66
2023/10/06 05:38:19;;;;;;;;;;;11.50;99.90;;;11.70;nan;101696.47;4913645;29;19930;-66
2023/10/06 05:40:47;;;;;;;;;;;11.50;99.90;;;11.64;nan;101699.44;4911104;29;20595;-66
2023/10/06 05:43:18;;;;;;;;;;;11.40;99.90;;;11.61;nan;101696.97;4911227;29;19931;-66
2023/10/06 05:45:51;;;;;;;;;;;11.40;99.90;;;11.64;nan;101704.66;4911664;29;19923;-66
2023/10/06 05:48:22;;;;;;;;;;;11.40;99.90;;;11.68;nan;101707.03;4901971;29;20662;-64
2023/10/06 05:50:49;;;;;;;;;;;11.40;99.90;;;11.70;nan;101706.94;4927414;29;19950;-67
2023/10/06 05:53:22;;;;;;;;;;;11.50;99.90;;;11.68;nan;101706.19;4915050;29;19927;-65
2023/10/06 05:55:49;;;;;;;;;;;11.50;99.90;;;11.68;nan;101714.03;4910341;29;19929;-66
2023/10/06 05:58:19;;;;;;;;;;;11.50;99.90;;;11.72;nan;101712.91;4911516;29;19927;-67
2023/10/06 06:00:55;;;;;;;;;;;11.50;99.90;;;11.87;nan;101719.00;4916191;29;19923;-66
2023/10/06 06:03:23;;;;;;;;;;;11.60;99.90;;;12.09;nan;101717.63;4910769;29;19927;-66
2023/10/06 06:05:57;;;;;;;;;;;11.80;99.90;;;12.35;nan;101722.06;4916200;29;19950;-66
2023/10/06 06:08:24;;;;;;;;;;;12.10;99.90;;;12.73;nan;101724.06;4913080;29;20840;-65
2023/10/06 06:10:52;;;;;;;;;;;12.40;99.90;;;13.11;nan;101720.69;4916048;29;20526;-66
2023/10/06 06:13:19;;;;;;;;;;;12.80;99.90;;;13.51;nan;101721.53;4909414;29;19923;-63
2023/10/06 06:15:48;;;;;;;;;;;13.20;99.90;;;13.93;nan;101718.59;4908030;29;19930;-65
2023/10/06 06:18:15;;;;;;;;;;;13.60;99.90;;;14.44;nan;101715.94;4914899;29;19931;-66
2023/10/06 06:20:42;;;;;;;;;;;14.10;99.90;;;14.94;nan;101721.03;4913033;29;20790;-66
2023/10/06 06:23:12;;;;;;;;;;;14.60;99.90;;;15.41;nan;101717.53;4913414;29;20275;-66
2023/10/06 06:25:39;;;;;;;;;;;15.10;99.90;;;15.78;nan;101715.63;4915481;29;19923;-66
2023/10/06 06:28:08;;;;;;;;;;;15.50;99.90;;;16.18;nan;101719.47;4911095;29;19986;-66
2023/10/06 06:30:37;;;;;;;;;;;15.90;99.90;;;16.60;nan;101723.16;4909508;29;19923;-66
2023/10/06 06:33:13;;;;;;;;;;;16.30;99.90;;;16.97;nan;101722.69;4914131;29;19946;-66
2023/10/06 06:35:42;;;;;;;;;;;16.70;99.90;;;17.29;nan;101706.88;4913926;29;20330;-66
2023/10/06 06:38:12;;;;;;;;;;;17.00;99.90;;;17.55;nan;101715.28;4915607;29;19930;-67
2023/10/06 06:40:39;;;;;;;;;;;17.30;99.90;;;17.86;nan;101718.81;4913494;29;20013;-66
2023/10/06 06:43:09;;;;;;;;;;;17.60;99.90;;;18.20;nan;101731.63;4913812;29;20308;-65
2023/10/06 06:45:39;;;;;;;;;;;17.90;99.90;;;18.66;nan;101730.25;4911637;29;19923;-67
2023/10/06 06:48:13;;;;;;;;;;;18.40;99.90;;;18.96;nan;101735.47;4908860;29;19924;-66
2023/10/06 06:50:42;;;;;;;;;;;18.80;99.90;;;19.29;nan;101738.53;4911837;29;19927;-67
2023/10/06 06:53:10;;;;;;;;;;;19.20;99.90;;;19.75;nan;101743.13;4913955;29;20574;-66
2023/10/06 06:55:37;;;;;;;;;;;19.60;99.90;;;20.34;nan;101747.28;4907662;29;20274;-67
2023/10/06 06:58:10;;;;;;;;;;;20.10;99.90;;;20.72;nan;101749.75;4911670;29;20317;-67
2023/10/06 07:00:39;;;;;;;;;;;20.60;99.90;;;21.19;nan;101751.25;4912420;29;19938;-66
2023/10/06 07:03:06;;;;;;;;;;;21.10;99.90;;;21.47;nan;101747.53;4905788;29;19923;-66
2023/10/06 07:05:37;;;;;;;;;;;21.40;99.90;;;21.74;nan;101738.63;4905831;29;19931;-65
2023/10/06 07:08:04;;;;;;;;;;;21.70;99.40;;;22.04;nan;101740.81;4912460;29;19926;-66
2023/10/06 07:10:32;;;;;;;;;;;22.10;98.50;;;22.20;nan;101726.78;4911658;29;19933;-65
2023/10/06 07:13:00;;;;;;;;;;;22.30;97.80;;;22.20;nan;101730.28;4925543;29;20534;-65
2023/10/06 07:15:30;;;;;;;;;;;22.40;96.70;;;22.36;nan;101729.50;4920062;29;19923;-66
2023/10/06 07:17:58;;;;;;;;;;;22.50;96.70;;;22.50;nan;101731.56;4928265;29;19927;-65
2023/10/06 07:20:27;;;;;;;;;;;22.70;96.10;;;22.62;nan;101724.97;4911591;29;19922;-65
2023/10/06 07:22:55;;;;;;;;;;;22.90;95.40;;;22.95;nan;101724.06;4913957;29;19923;-65
2023/10/06 07:25:26;;;;;;;;;;;23.20;94.90;;;23.43;nan;101727.75;4911437;29;20386;-66
2023/10/06 07:27:55;;;;;;;;;;;23.70;94.30;;;23.87;nan;101731.72;4913497;29;19931;-66
2023/10/06 07:30:34;;;;;;;;;;;24.10;92.90;;;24.52;nan;101727.84;4909104;29;19931;-66
2023/10/06 07:33:08;;;;;;;;;;;24.80;91.90;;;25.05;nan;101726.19;4906060;29;19930;-66
2023/10/06 07:35:47;;;;;;;;;;;25.30;90.50;;;25.63;nan;101731.75;4912331;29;20297;-66
2023/10/06 07:38:14;;;;;;;;;;;26.00;88.10;;;26.25;nan;101726.09;4904866;29;19927;-68
2023/10/06 07:40:42;;;;;;;;;;;26.60;85.40;;;26.39;nan;101727.91;4914683;29;19934;-66
2023/10/06 07:43:10;;;;;;;;;;;26.80;82.90;;;27.12;nan;101735.78;4911646;29;19930;-67
2023/10/06 07:45:37;;;;;;;;;;;27.40;81.50;;;27.77;nan;101736.34;4914132;29;19923;-67
2023/10/06 07:48:05;;;;;;;;;;;28.10;78.30;;;28.28;nan;101740.41;4920707;29;19927;-66
2023/10/06 07:50:34;;;;;;;;;;;28.60;76.30;;;28.46;nan;101750.59;4926073;29;20029;-65
2023/10/06 07:53:01;;;;;;;;;;;28.90;73.40;;;28.63;nan;101743.03;4913886;29;20348;-66
2023/10/06 07:55:28;;;;;;;;;;;28.90;73.50;;;28.75;nan;101753.00;4911668;29;20460;-66
2023/10/06 07:57:55;;;;;;;;;;;28.90;72.70;;;28.71;nan;101757.13;4906256;29;19923;-66
2023/10/06 08:00:29;;;;;;;;;;;28.80;72.40;;;28.55;nan;101746.72;4906996;29;19935;-65
2023/10/06 08:02:58;;;;;;;;;;;28.80;71.80;;;28.50;nan;101751.00;4909898;29;20014;-64
2023/10/06 08:05:26;;;;;;;;;;;28.80;71.70;;;28.57;nan;101746.53;4911816;29;19927;-65
2023/10/06 08:07:57;;;;;;;;;;;28.90;70.30;;;28.67;nan;101745.13;4902622;29;20436;-65
2023/10/06 08:10:25;;;;;;;;;;;29.10;70.50;;;28.67;nan;101745.13;4905028;29;19926;-66
2023/10/06 08:12:56;;;;;;;;;;;29.10;69.80;;;28.78;nan;101743.72;4911231;29;19930;-66
2023/10/06 08:15:25;;;;;;;;;;;29.10;69.60;;;28.46;nan;101747.09;4912938;29;20480;-64
2023/10/06 08:17:53;;;;;;;;;;;28.70;70.10;;;27.95;nan;101735.84;4911391;29;19930;-66
2023/10/06 08:20:21;;;;;;;;;;;28.20;70.80;;;27.11;nan;101740.28;4914141;29;19927;-66
2023/10/06 08:22:51;;;;;;;;;;;27.40;71.90;;;26.84;nan;101741.06;4910054;29;19993;-66
2023/10/06 08:25:19;;;;;;;;;;;27.10;72.90;;;27.01;nan;101745.16;4909309;29;19931;-66
2023/10/06 08:27:48;;;;;;;;;;;27.20;73.00;;;27.64;nan;101747.81;4911890;29;19930;-64
2023/10/06 08:30:17;;;;;;;;;;;27.80;72.60;;;28.76;nan;101753.84;4904932;29;19927;-67
2023/10/06 08:32:47;;;;;;;;;;;28.80;70.90;;;30.13;nan;101753.09;4905796;29;19930;-67
2023/10/06 08:35:15;;;;;;;;;;;30.10;68.80;;;31.18;nan;101753.44;4911738;29;20649;-66
2023/10/06 08:37:43;;;;;;;;;;;31.30;66.30;;;31.90;nan;101748.25;4911677;29;19930;-67
2023/10/06 08:40:17;;;;;;;;;;;32.10;64.70;;;32.55;nan;101745.91;4910925;29;19930;-67
2023/10/06 08:42:56;;;;;;;;;;;32.80;62.70;;;33.09;nan;101748.50;4911741;29;19923;-66
2023/10/06 08:45:24;;;;;;;;;;;33.30;60.60;;;33.41;nan;101757.13;4905991;29;19923;-66
2023/10/06 08:47:59;;;;;;;;;;;33.50;60.00;;;33.63;nan;101750.94;4908702;29;19930;-65
2023/10/06 08:50:31;;;;;;;;;;;33.90;58.60;;;33.98;nan;101741.97;4913183;29;19927;-66
2023/10/06 08:53:00;;;;;;;;;;;34.20;58.20;;;34.18;nan;101743.25;4908861;29;19969;-64
2023/10/06 08:55:28;;;;;;;;;;;34.50;57.20;;;33.99;nan;101749.03;4909869;29;19923;-65
2023/10/06 08:57:55;;;;;;;;;;;34.40;56.60;;;33.45;nan;101756.44;4913269;29;19923;-66
2023/10/06 09:00:24;;;;;;;;;;;34.00;56.60;;;33.06;nan;101743.53;4903947;29;20298;-65
2023/10/06 09:02:54;;;;;;;;;;;33.40;57.20;;;32.51;nan;101742.84;4909071;29;19950;-66
2023/10/06 09:05:21;;;;;;;;;;;32.90;57.50;;;32.42;nan;101738.75;4913272;29;19982;-65
2023/10/06 09:08:08;;;;;;;;;;;32.60;58.20;;;32.56;nan;101742.16;4902780;29;19927;-65
2023/10/06 09:10:41;;;;;;;;;;;32.70;57.80;;;32.12;nan;101736.00;4910334;29;19926;-65
2023/10/06 09:13:16;;;;;;;;;;;32.50;57.40;;;31.89;nan;101722.34;4908439;29;19936;-65
2023/10/06 09:15:55;;;;;;;;;;;32.20;58.20;;;31.92;nan;101724.56;4913641;29;19943;-65
2023/10/06 09:18:27;;;;;;;;;;;32.20;58.30;;;32.61;nan;101720.66;4903315;29;19926;-66
2023/10/06 09:20:54;;;;;;;;;;;32.70;57.60;;;33.32;nan;101721.47;4912681;29;19933;-65
2023/10/06 09:23:29;;;;;;;;;;;33.30;57.00;;;33.20;nan;101714.41;4912887;29;19926;-66
2023/10/06 09:25:57;;;;;;;;;;;33.30;56.40;;;33.13;nan;101724.50;4914742;29;19923;-67
2023/10/06 09:28:26;;;;;;;;;;;33.30;56.20;;;32.81;nan;101723.94;4914963;29;20404;-67
2023/10/06 09:30:57;;;;;;;;;;;33.10;56.40;;;32.74;nan;101723.19;4915097;29;19927;-66
2023/10/06 09:33:26;;;;;;;;;;;32.70;56.80;;;31.97;nan;101708.56;4916538;29;19927;-66
2023/10/06 09:36:06;;;;;;;;;;;31.90;57.60;;;31.28;nan;101705.25;4914566;29;20472;-67
2023/10/06 09:38:39;;;;;;;;;;;30.90;59.30;;;29.76;nan;101698.13;4914398;29;19930;-66
2023/10/06 09:41:07;;;;;;;;;;;29.60;60.70;;;28.16;nan;101695.53;4930343;29;19931;-66
2023/10/06 09:43:38;;;;;;;;;;;28.10;62.50;;;26.64;nan;101687.25;4913975;29;20488;-66
2023/10/06 09:46:13;;;;;;;;;;;26.70;64.70;;;25.33;nan;101676.56;4916318;29;19930;-66
2023/10/06 09:48:45;;;;;;;7.53;4.30;;;25.30;67.80;;;24.41;nan;101676.69;4912309;29;21398;-66
2023/10/06 09:51:13;;;;;;;5.90;3.80;;;24.30;70.40;;;23.62;nan;101674.13;4915626;29;20637;-66
2023/10/06 09:53:43;;;;;;;12.60;4.30;;;23.50;72.30;;;22.94;nan;101678.97;4911903;29;20668;-65
2023/10/06 09:56:13;;;;;;;9.10;4.27;;;22.90;74.30;;;22.34;nan;101672.97;4910731;29;20646;-66
2023/10/06 09:58:48;;;;;;;7.57;3.90;;;22.20;76.30;;;22.02;nan;101675.53;4926109;29;20666;-67
2023/10/06 10:01:15;;;;;;;3.00;2.67;;;21.80;78.40;;;21.80;nan;101668.06;4914157;29;20644;-67
2023/10/06 10:03:43;;;;;;;7.60;4.37;;;21.50;80.70;;;21.62;nan;101665.47;4913533;29;20712;-66
2023/10/06 10:06:14;;;;;;;8.73;4.07;;;21.30;82.70;;;21.20;nan;101660.03;4916146;29;20642;-66
2023/10/06 10:08:41;;;;;;;3.60;3.10;;;20.90;84.30;;;20.81;nan;101669.28;4912165;29;20689;-66
2023/10/06 10:11:16;;;;;;;6.20;3.60;;;20.60;86.20;;;20.74;nan;101657.63;4915908;29;20638;-66
2023/10/06 10:13:58;;;;;;;6.87;4.23;;;20.40;88.40;;;20.71;nan;101658.75;4908697;29;20715;-66
2023/10/06 10:16:56;;;;;;;9.00;4.20;;;20.30;89.50;;;21.08;nan;101645.34;4912687;29;20641;-66
2023/10/06 10:19:26;;;;;;;4.93;3.00;;;20.70;89.70;;;21.71;nan;101658.38;4914483;29;20647;-67
2023/10/06 10:21:55;;;;;;;5.17;4.10;;;21.40;89.00;;;22.35;nan;101651.56;4911530;29;21032;-67
2023/10/06 10:24:22;;;;;;;8.37;3.97;;;22.20;86.00;;;23.31;nan;101650.00;4928827;29;20645;-67
2023/10/06 10:26:54;;;;;;;4.47;3.17;;;23.00;84.10;;;23.96;nan;101656.03;4913289;29;20801;-66
2023/10/06 10:29:24;;;;;;;11.17;4.53;;;23.40;82.50;;;23.69;nan;101653.78;4909624;29;21254;-65
2023/10/06 10:31:57;;;;;;;5.97;4.03;;;23.30;82.30;;;23.17;nan;101655.19;4912306;29;20679;-67
2023/10/06 10:34:33;;;;;;;6.90;2.93;;;22.80;83.30;;;22.47;nan;101654.72;4905303;29;20642;-67
2023/10/06 10:37:05;;;;;;;6.60;3.80;;;22.20;85.20;;;21.86;nan;101654.19;4914365;29;20669;-66
2023/10/06 10:39:52;;;;;;;5.30;3.50;;;21.60;86.60;;;21.41;nan;101646.41;4908008;29;20646;-66
2023/10/06 10:42:38;;;;;;;4.70;3.13;;;21.10;88.20;;;21.09;nan;101639.03;4914760;29;20641;-68
2023/10/06 10:45:47;;;;;;;4.90;3.80;;;20.80;90.00;;;20.82;nan;101639.13;4912619;29;20645;-66
2023/10/06 10:48:15;;;;;;;4.70;3.67;;;20.40;90.40;;;20.49;nan;101645.91;4913259;29;21133;-67
2023/10/06 10:51:12;;;;;;;7.90;3.57;;;20.10;91.00;;;20.18;nan;101635.75;4909591;29;20646;-67
2023/10/06 10:53:43;;;;;;;6.23;3.33;;;19.80;92.00;;;20.05;nan;101647.53;4916471;29;21207;-67
2023/10/06 10:56:17;;;;;;;3.57;2.33;;;19.70;92.60;;;19.92;nan;101641.75;4912231;29;20745;-66
2023/10/06 10:58:44;;;;;;;11.57;4.43;;;19.50;92.70;;;19.84;nan;101632.84;4911185;29;21264;-65
2023/10/06 11:01:43;;;;;;;5.30;1.93;;;19.40;93.30;;;19.72;nan;101636.69;4911826;29;20646;-66
2023/10/06 11:07:15;;;;;;;5.33;2.83;;;19.20;94.30;;;19.55;nan;101629.50;4911828;29;20724;-67
2023/10/06 11:09:48;;;;;;;5.67;3.13;;;19.10;94.40;;;19.46;nan;101628.53;4911050;29;20687;-66
2023/10/06 11:12:25;;;;;;;2.33;2.10;;;19.00;94.20;;;19.38;nan;101615.16;4915006;29;21195;-67
2023/10/06 11:15:02;;;;;;;4.80;2.10;;;18.90;95.10;;;19.34;nan;101611.97;4906630;29;20645;-67
2023/10/06 11:17:31;;;;;;;6.57;2.47;;;18.90;95.10;;;19.33;nan;101610.28;4912519;29;20735;-64
2023/10/06 11:20:12;;;;;;;7.73;1.77;;;18.90;95.60;;;19.32;nan;101613.91;4913258;29;20646;-67
2023/10/06 11:22:41;;;;;;;2.63;1.47;;;18.90;95.80;;;19.31;nan;101604.28;4912384;29;20634;-67
2023/10/06 11:25:10;;;;;;;5.60;2.40;;;18.90;95.90;;;19.33;nan;101604.16;4911632;29;20646;-67
2023/10/06 11:27:39;;;;;;;2.50;2.30;;;18.90;96.30;;;19.33;nan;101604.16;4913006;29;20676;-68
2023/10/06 11:30:15;;;;;;;4.70;2.70;;;18.80;96.50;;;19.35;nan;101602.22;4910223;29;20709;-66
2023/10/06 11:32:42;;;;;;;2.20;1.47;;;18.90;96.80;;;19.38;nan;101601.91;4905240;29;21226;-68
2023/10/06 11:35:10;;;;;;;1.90;1.80;;;18.90;96.30;;;19.43;nan;101599.69;4907627;29;20653;-66
2023/10/06 11:37:37;;;;;;;3.27;1.90;;;18.90;96.30;;;19.46;nan;101599.41;4913474;29;21253;-67